Time;durP1;ratioP1;P1;durP2;ratioP2;P2;SDS_P1;SDS_P2;PMS_P1;PMS_P2;Temp;Humidity;BMP_temperature;BMP_pressure;BME280_temperature;BME280_humidity;BME280_pressure;Samples;Min_cycle;Max_cycle;Signal;HPM_P1;HPM_P2
2021/12/15 00:00:29;;;;;;;;;7.75;7.75;;;;;22.30;39.70;102970.78;5031131;27;45772;-72
2021/12/15 00:02:55;;;;;;;;;6.75;6.00;;;;;22.30;39.65;102976.09;5032307;28;45300;-72
2021/12/15 00:05:23;;;;;;;;;7.25;7.00;;;;;22.30;39.42;102968.16;5012854;28;46312;-72
2021/12/15 00:07:52;;;;;;;;;8.00;7.00;;;;;22.29;39.06;102975.25;5030865;27;45350;-72
2021/12/15 00:10:19;;;;;;;;;9.00;9.00;;;;;22.29;39.07;102975.25;5031729;27;45402;-72
2021/12/15 00:12:45;;;;;;;;;6.50;6.25;;;;;22.28;38.91;102967.41;5032080;28;45309;-72
2021/12/15 00:15:11;;;;;;;;;8.25;7.75;;;;;22.23;39.34;102959.84;5030852;27;46310;-73
2021/12/15 00:17:36;;;;;;;;;7.75;7.00;;;;;22.27;39.41;102969.25;5033654;28;45382;-72
2021/12/15 00:20:09;;;;;;;;;7.75;7.25;;;;;22.26;39.08;102967.56;5032820;28;45346;-72
2021/12/15 00:22:35;;;;;;;;;7.00;7.00;;;;;22.27;39.29;102971.06;5031858;28;45428;-73
2021/12/15 00:25:01;;;;;;;;;8.75;5.50;;;;;22.27;39.42;102965.75;5031488;28;45453;-73
2021/12/15 00:27:27;;;;;;;;;8.50;7.50;;;;;22.16;39.37;102942.78;5031751;28;45573;-71
2021/12/15 00:29:52;;;;;;;;;8.25;8.25;;;;;22.21;39.20;102956.50;5031990;28;47962;-71
2021/12/15 00:32:17;;;;;;;;;7.00;5.25;;;;;22.27;38.96;102966.59;5034142;28;45493;-72
2021/12/15 00:34:45;;;;;;;;;6.00;6.00;;;;;22.23;39.20;102957.19;5031644;28;47255;-72
2021/12/15 00:37:10;;;;;;;;;9.00;8.00;;;;;22.26;38.76;102958.75;5031361;28;45406;-72
2021/12/15 00:39:36;;;;;;;;;7.25;5.25;;;;;22.25;38.99;102970.34;5030424;28;45338;-72
2021/12/15 00:42:02;;;;;;;;;7.00;6.25;;;;;22.21;39.35;102953.84;5031319;28;45537;-72
2021/12/15 00:44:28;;;;;;;;;5.00;5.00;;;;;22.24;38.95;102955.38;5033768;27;45300;-72
2021/12/15 00:46:53;;;;;;;;;6.00;5.75;;;;;22.24;38.88;102964.19;5031334;27;45275;-71
2021/12/15 00:49:22;;;;;;;;;7.00;7.00;;;;;22.24;39.27;102961.53;5031819;28;45346;-72
2021/12/15 00:51:48;;;;;;;;;10.25;7.75;;;;;22.23;38.77;102957.19;5031474;27;45622;-72
2021/12/15 00:54:14;;;;;;;;;7.75;7.75;;;;;22.22;39.29;102955.53;5030446;27;47051;-73
2021/12/15 00:56:39;;;;;;;;;6.00;6.00;;;;;22.22;39.33;102960.84;5033081;28;45393;-73
2021/12/15 00:59:07;;;;;;;;;7.50;6.00;;;;;22.20;38.77;102957.44;5011269;27;45547;-72
2021/12/15 01:01:33;;;;;;;;;6.50;6.50;;;;;22.21;39.18;102963.59;5028226;28;45521;-73
2021/12/15 01:03:59;;;;;;;;;6.50;6.50;;;;;22.12;39.20;102946.69;5031330;28;47480;-72
2021/12/15 01:06:29;;;;;;;;;9.00;8.50;;;;;22.17;39.13;102955.91;5030982;28;45284;-71
2021/12/15 01:09:03;;;;;;;;;6.50;6.50;;;;;22.20;39.43;102959.28;5031627;28;45405;-72
2021/12/15 01:11:51;;;;;;;;;7.50;7.50;;;;;22.19;39.27;102950.47;5033478;28;45369;-72
2021/12/15 01:19:46;;;;;;;;;8.25;8.25;;;;;22.19;39.26;102958.44;5031536;28;45375;-72
2021/12/15 01:20:03;;;;;;;;;7.00;6.25;;;;;22.16;38.89;102954.22;5032026;28;45513;-72
2021/12/15 01:22:32;;;;;;;;;6.00;5.75;;;;;22.17;39.35;102960.38;5030620;28;45471;-72
2021/12/15 01:25:03;;;;;;;;;8.25;7.00;;;;;22.07;39.29;102944.38;5030953;28;46224;-72
2021/12/15 01:27:28;;;;;;;;;7.00;6.50;;;;;22.16;38.83;102964.00;5031186;28;45357;-72
2021/12/15 01:29:54;;;;;;;;;6.00;6.00;;;;;22.17;39.21;102971.00;5031149;28;45357;-72
2021/12/15 01:32:20;;;;;;;;;7.50;7.50;;;;;21.96;39.11;102940.00;5033404;28;45378;-72
2021/12/15 01:34:46;;;;;;;;;6.25;6.25;;;;;22.07;38.92;102955.00;5029851;28;45391;-72
2021/12/15 01:37:12;;;;;;;;;6.75;6.75;;;;;22.13;38.77;102965.09;5030513;28;45524;-72
2021/12/15 01:39:38;;;;;;;;;9.75;6.00;;;;;22.16;38.73;102964.84;5031648;27;45500;-72
2021/12/15 01:42:04;;;;;;;;;7.50;6.25;;;;;22.10;38.79;102952.09;5014247;28;45335;-72
2021/12/15 01:47:03;;;;;;;;;7.00;6.00;;;;;22.15;39.21;102963.16;5030646;28;45274;-72
2021/12/15 01:49:39;;;;;;;;;6.00;6.00;;;;;22.16;38.78;102964.00;5021970;28;45291;-72
2021/12/15 01:52:13;;;;;;;;;6.25;6.25;;;;;22.15;39.03;102959.66;5031047;28;45311;-72
2021/12/15 01:54:41;;;;;;;;;8.00;6.00;;;;;22.14;38.67;102965.94;5030778;28;46344;-71
2021/12/15 01:57:09;;;;;;;;;6.25;6.25;;;;;22.12;39.11;102967.88;5029505;28;45497;-72
2021/12/15 01:59:35;;;;;;;;;6.00;6.00;;;;;22.10;38.50;102970.66;5028286;28;45520;-73
2021/12/15 02:02:00;;;;;;;;;7.00;6.25;;;;;22.15;38.67;102972.91;5031593;28;45434;-73
2021/12/15 02:04:26;;;;;;;;;7.00;7.00;;;;;22.14;39.09;102972.09;5030227;28;47031;-72
2021/12/15 02:06:52;;;;;;;;;7.25;7.25;;;;;22.10;38.80;102960.03;5099462;27;45581;-72
2021/12/15 02:10:01;;;;;;;;;9.50;8.00;;;;;22.14;38.75;102971.25;5030997;28;45493;-72
2021/12/15 02:12:32;;;;;;;;;6.50;6.25;;;;;22.14;38.91;102966.78;5016431;28;45375;-72
2021/12/15 02:14:57;;;;;;;;;8.75;8.00;;;;;22.14;39.01;102969.44;5030682;27;46294;-72
2021/12/15 02:17:23;;;;;;;;;8.50;7.25;;;;;22.10;39.03;102967.16;5032635;28;45430;-72
2021/12/15 02:19:49;;;;;;;;;5.00;5.00;;;;;22.10;39.14;102961.84;5030196;28;45232;-72
2021/12/15 02:22:15;;;;;;;;;7.00;6.00;;;;;22.09;38.71;102961.03;5030353;28;45357;-72
2021/12/15 02:24:41;;;;;;;;;7.75;6.00;;;;;22.03;38.82;102956.22;5030392;28;46026;-72
2021/12/15 02:27:11;;;;;;;;;7.00;7.00;;;;;22.03;39.09;102962.38;5031791;27;47720;-72
2021/12/15 02:29:40;;;;;;;;;7.75;5.00;;;;;22.13;38.88;102975.69;5031971;28;45419;-72
2021/12/15 02:34:54;;;;;;;;;8.00;6.75;;;;;22.12;39.11;102974.00;5029893;28;45285;-72
2021/12/15 02:37:18;;;;;;;;;7.25;5.50;;;;;22.12;38.89;102971.34;5028895;27;45476;-72
2021/12/15 02:39:52;;;;;;;;;7.00;7.00;;;;;22.13;38.52;102969.56;5030293;28;45416;-72
2021/12/15 02:42:20;;;;;;;;;6.75;5.00;;;;;22.13;38.63;102969.56;5030242;28;45314;-72
2021/12/15 02:44:46;;;;;;;;;8.75;7.75;;;;;22.05;39.04;102962.25;5030889;28;46315;-72
2021/12/15 02:47:17;;;;;;;;;7.00;7.00;;;;;22.11;39.13;102966.19;5031631;28;45299;-72
2021/12/15 02:49:44;;;;;;;;;7.00;7.00;;;;;22.12;38.61;102965.22;5029884;28;45380;-72
2021/12/15 02:52:09;;;;;;;;;8.25;6.50;;;;;22.11;38.73;102972.34;5031125;27;46135;-72
2021/12/15 02:54:35;;;;;;;;;6.75;6.50;;;;;22.11;39.04;102969.69;5033038;28;46144;-72
2021/12/15 02:57:11;;;;;;;;;7.75;7.00;;;;;22.11;39.09;102958.25;5034011;28;45410;-72
2021/12/15 02:59:58;;;;;;;;;7.00;6.50;;;;;22.11;38.65;102974.16;5031344;28;45387;-72
2021/12/15 03:05:10;;;;;;;;;5.75;5.75;;;;;22.10;39.09;102962.69;5032710;27;45586;-72
2021/12/15 03:07:49;;;;;;;;;7.25;7.25;;;;;21.94;38.84;102939.28;5032826;28;45448;-72
2021/12/15 03:15:48;;;;;;;;;8.25;6.50;;;;;22.03;38.97;102957.06;5031219;28;45401;-72
2021/12/15 03:18:21;;;;;;;;;7.00;7.00;;;;;22.06;39.00;102962.13;5032332;28;45616;-72
2021/12/15 03:20:58;;;;;;;;;8.75;7.75;;;;;22.07;38.39;102960.28;5033634;27;45335;-72
2021/12/15 03:23:56;;;;;;;;;7.75;6.00;;;;;22.09;39.06;102966.34;5033835;28;45266;-72
2021/12/15 03:26:35;;;;;;;;;8.00;7.00;;;;;22.09;38.60;102966.34;5044450;27;46098;-72
2021/12/15 03:37:23;;;;;;;;;8.25;7.25;;;;;22.10;38.85;102965.34;5032376;28;46192;-72
2021/12/15 03:39:51;;;;;;;;;7.00;7.00;;;;;22.09;38.77;102963.69;5032315;28;45400;-72
2021/12/15 03:42:21;;;;;;;;;7.00;6.25;;;;;22.03;38.90;102961.53;5032605;27;45460;-72
2021/12/15 03:44:47;;;;;;;;;7.00;7.00;;;;;22.11;38.48;102971.50;5032956;28;45360;-72
2021/12/15 03:47:18;;;;;;;;;7.75;6.50;;;;;22.10;38.72;102968.00;5033737;28;45519;-72
2021/12/15 03:49:43;;;;;;;;;7.50;7.00;;;;;21.99;38.56;102946.88;5032225;28;45433;-72
2021/12/15 03:52:12;;;;;;;;;8.75;8.00;;;;;22.10;38.94;102967.16;5032344;28;45338;-72
2021/12/15 03:54:38;;;;;;;;;8.25;6.25;;;;;22.09;38.87;102965.50;5031122;27;45645;-72
2021/12/15 03:57:04;;;;;;;;;9.00;6.50;;;;;22.01;38.40;102951.06;5032312;28;46290;-72
2021/12/15 03:59:32;;;;;;;;;7.75;7.00;;;;;22.01;38.96;102959.03;5034278;28;45501;-72
2021/12/15 04:01:57;;;;;;;;;7.00;7.00;;;;;22.07;38.83;102969.09;5031969;28;45311;-72
2021/12/15 04:04:23;;;;;;;;;7.00;7.00;;;;;22.10;39.05;102975.09;5031549;28;45477;-72
2021/12/15 04:06:48;;;;;;;;;7.50;6.50;;;;;22.03;38.93;102965.03;5032031;27;46122;-72
2021/12/15 04:09:14;;;;;;;;;7.00;7.00;;;;;22.08;38.65;102972.59;5031210;27;45445;-72
2021/12/15 04:11:41;;;;;;;;;8.50;6.50;;;;;22.03;38.81;102964.19;5033587;28;45295;-72
2021/12/15 04:14:18;;;;;;;;;7.75;6.00;;;;;22.05;38.50;102968.38;5033008;28;45433;-72
2021/12/15 04:16:57;;;;;;;;;6.50;5.50;;;;;22.07;38.41;102977.03;5031571;27;46142;-72
2021/12/15 04:19:22;;;;;;;;;6.50;6.50;;;;;22.04;38.96;102981.78;5031973;28;45543;-72
2021/12/15 04:21:48;;;;;;;;;2.25;2.25;;;;;22.05;38.54;102986.94;5031927;27;45516;-72
2021/12/15 04:24:16;;;;;;;;;7.25;7.00;;;;;22.07;38.69;102989.44;5032129;28;45363;-72
2021/12/15 04:26:43;;;;;;;;;8.00;5.50;;;;;22.07;38.42;102992.94;5033204;28;48785;-72
2021/12/15 04:29:09;;;;;;;;;7.00;7.00;;;;;21.74;38.90;102944.41;5031225;27;45342;-71
2021/12/15 04:31:39;;;;;;;;;8.75;6.75;;;;;22.06;38.90;102996.59;5031943;27;45476;-72
2021/12/15 04:34:08;;;;;;;;;8.25;8.25;;;;;22.03;38.46;102986.25;5030671;27;45294;-72
2021/12/15 04:36:38;;;;;;;;;6.75;6.50;;;;;22.06;38.72;102985.13;5031709;28;46154;-72
2021/12/15 04:39:07;;;;;;;;;8.00;6.25;;;;;22.07;38.26;102994.75;5016257;28;45329;-72
2021/12/15 04:41:33;;;;;;;;;6.50;6.50;;;;;22.06;38.38;102995.75;5029814;28;45320;-72
2021/12/15 04:44:01;;;;;;;;;8.00;6.00;;;;;22.06;38.88;102996.59;5031592;28;45280;-72
2021/12/15 04:46:30;;;;;;;;;7.50;7.50;;;;;22.06;38.84;102990.44;5031525;28;45940;-72
2021/12/15 04:48:57;;;;;;;;;6.25;6.00;;;;;22.05;38.61;102992.25;5030257;28;45519;-72
2021/12/15 04:51:23;;;;;;;;;5.75;5.75;;;;;21.95;38.80;102989.53;5031853;27;45477;-72
2021/12/15 04:53:49;;;;;;;;;6.25;6.25;;;;;22.06;38.58;103006.34;5031986;28;45422;-72
2021/12/15 04:56:16;;;;;;;;;9.00;6.75;;;;;22.07;38.21;103002.72;5042878;27;46269;-72
2021/12/15 04:58:42;;;;;;;;;7.50;6.00;;;;;22.07;38.77;103015.97;5031184;28;45364;-72
2021/12/15 05:01:10;;;;;;;;;6.50;6.50;;;;;22.07;38.38;103013.31;5031509;28;45430;-72
2021/12/15 05:03:35;;;;;;;;;8.50;7.25;;;;;22.07;38.31;103015.97;5031578;28;45311;-72
2021/12/15 05:06:02;;;;;;;;;6.00;6.00;;;;;22.07;38.89;103010.66;5031213;28;46140;-72
2021/12/15 05:08:28;;;;;;;;;7.75;7.00;;;;;22.06;38.66;103012.50;5033657;28;45398;-72
2021/12/15 05:10:56;;;;;;;;;8.00;7.25;;;;;22.07;38.27;103023.91;5031422;27;45389;-72
2021/12/15 05:13:22;;;;;;;;;7.50;6.75;;;;;21.96;38.32;103004.44;5029797;28;45541;-72
2021/12/15 05:15:47;;;;;;;;;7.25;6.00;;;;;21.94;38.26;103001.09;5029775;28;46052;-72
2021/12/15 05:18:13;;;;;;;;;8.75;7.00;;;;;22.05;38.23;103015.25;5031658;28;45382;-73
2021/12/15 05:20:40;;;;;;;;;8.00;8.00;;;;;21.82;38.25;102992.31;5032912;28;45676;-72
2021/12/15 05:23:07;;;;;;;;;7.25;7.00;;;;;22.08;38.28;103030.91;5031899;27;45532;-72
2021/12/15 05:25:34;;;;;;;;;6.50;6.00;;;;;22.06;38.41;103016.94;5030857;28;46141;-72
2021/12/15 05:27:59;;;;;;;;;5.25;5.25;;;;;22.07;38.75;103022.13;5029891;27;45464;-72
2021/12/15 05:30:25;;;;;;;;;9.00;5.50;;;;;22.03;38.64;103017.19;5031312;28;45434;-72
2021/12/15 05:32:50;;;;;;;;;7.50;7.00;;;;;22.07;38.26;103031.88;5031344;28;45345;-72
2021/12/15 05:35:22;;;;;;;;;6.25;5.75;;;;;22.04;38.27;103030.31;5033265;27;45541;-72
2021/12/15 05:37:53;;;;;;;;;8.00;5.50;;;;;22.05;38.77;103032.00;5031024;28;45509;-72
2021/12/15 05:40:20;;;;;;;;;9.25;6.25;;;;;22.06;38.57;103038.16;5031013;28;45220;-72
2021/12/15 05:42:46;;;;;;;;;6.50;6.50;;;;;21.98;38.51;103030.00;5030766;27;45367;-72
2021/12/15 05:45:12;;;;;;;;;6.75;6.25;;;;;22.06;38.73;103038.16;5030806;27;45524;-72
2021/12/15 05:47:38;;;;;;;;;7.00;7.00;;;;;21.87;38.37;103010.50;5032544;28;45488;-72
2021/12/15 05:50:08;;;;;;;;;4.75;4.75;;;;;22.06;38.76;103043.47;5030710;28;45296;-71
2021/12/15 05:52:34;;;;;;;;;8.50;8.00;;;;;21.97;38.24;103029.16;5029609;28;45527;-72
2021/12/15 05:55:00;;;;;;;;;5.50;5.50;;;;;22.06;38.68;103040.81;5030541;28;46928;-72
2021/12/15 05:57:25;;;;;;;;;8.25;7.00;;;;;22.06;38.29;103035.50;5030573;28;45633;-72
2021/12/15 05:59:51;;;;;;;;;6.75;6.00;;;;;22.06;38.19;103043.47;5030946;28;45490;-72
2021/12/15 06:02:16;;;;;;;;;6.00;6.00;;;;;21.99;38.50;103042.28;5033019;28;45539;-72
2021/12/15 06:04:42;;;;;;;;;7.25;6.25;;;;;22.01;38.40;103043.00;5030451;28;45525;-72
2021/12/15 06:07:07;;;;;;;;;6.25;6.25;;;;;21.98;38.33;103037.94;5029492;28;45653;-72
2021/12/15 06:09:34;;;;;;;;;5.50;5.50;;;;;22.04;38.11;103056.00;5030852;28;45483;-72
2021/12/15 06:12:00;;;;;;;;;7.25;7.25;;;;;22.05;38.85;103057.66;5030621;28;45404;-72
2021/12/15 06:14:27;;;;;;;;;6.75;6.75;;;;;22.06;38.30;103054.91;5032487;28;46208;-72
2021/12/15 06:16:57;;;;;;;;;7.25;7.25;;;;;22.06;38.17;103062.88;5030594;28;45353;-72
2021/12/15 06:19:23;;;;;;;;;7.75;7.75;;;;;22.01;38.33;103056.25;5030623;27;45357;-72
2021/12/15 06:21:49;;;;;;;;;10.00;8.00;;;;;22.07;38.41;103066.34;5030247;28;45567;-72
2021/12/15 06:24:14;;;;;;;;;7.75;6.75;;;;;22.07;38.51;103066.34;5030377;28;46074;-72
2021/12/15 06:26:40;;;;;;;;;3.25;3.25;;;;;22.06;38.13;103062.00;5030813;28;45804;-72
2021/12/15 06:29:06;;;;;;;;;7.00;5.25;;;;;22.09;38.50;103071.53;5031370;28;45581;-72
2021/12/15 06:31:31;;;;;;;;;7.00;6.00;;;;;22.07;38.67;103074.28;5028965;28;45523;-72
2021/12/15 06:33:57;;;;;;;;;5.00;5.00;;;;;22.09;38.17;103077.69;5030113;28;46208;-72
2021/12/15 06:36:22;;;;;;;;;6.00;6.00;;;;;22.11;38.19;103080.19;5030267;28;45476;-72
2021/12/15 06:38:52;;;;;;;;;7.00;5.50;;;;;22.12;38.63;103084.53;5031029;28;45422;-72
2021/12/15 06:41:19;;;;;;;;;5.25;5.25;;;;;22.00;38.67;103063.34;5040196;27;45452;-72
2021/12/15 06:43:50;;;;;;;;;6.00;6.00;;;;;22.13;38.24;103078.25;5029912;28;45539;-72
2021/12/15 06:59:55;;;;;;;;;5.50;5.50;;;;;22.09;38.52;103080.31;5030342;28;45243;-71
2021/12/15 07:02:23;;;;;;;;;5.75;5.25;;;;;22.14;38.48;103094.03;5017146;27;45338;-72
2021/12/15 07:04:48;;;;;;;;;2.50;1.25;;;;;22.15;38.56;103094.88;5029819;28;46167;-72
2021/12/15 07:07:13;;;;;;;;;8.25;6.25;;;;;22.13;38.50;103092.34;5029537;28;45421;-72
2021/12/15 07:09:39;;;;;;;;;8.00;6.50;;;;;22.14;38.04;103099.34;5028361;28;45452;-72
2021/12/15 07:12:05;;;;;;;;;7.00;7.00;;;;;22.07;37.90;103090.19;5030416;27;45244;-72
2021/12/15 07:14:31;;;;;;;;;6.25;5.75;;;;;22.14;38.42;103109.94;5028798;27;45442;-72
2021/12/15 07:16:58;;;;;;;;;5.25;5.25;;;;;22.10;38.26;103089.94;5029528;28;45411;-73
2021/12/15 07:22:15;;;;;;;;;5.75;5.25;;;;;22.13;38.50;103102.94;5029530;27;45349;-72
2021/12/15 07:24:41;;;;;;;;;5.50;5.00;;;;;22.14;38.31;103098.50;5027803;28;47495;-71
2021/12/15 07:27:07;;;;;;;;;5.00;5.00;;;;;22.08;38.58;103105.13;5029364;28;45238;-73
2021/12/15 07:29:34;;;;;;;;;8.75;7.00;;;;;22.08;38.65;103113.09;5029461;27;45436;-74
2021/12/15 07:32:00;;;;;;;;;7.50;7.50;;;;;22.13;37.97;103123.31;5029132;27;45631;-72
2021/12/15 07:34:26;;;;;;;;;6.75;6.50;;;;;22.14;38.58;103130.31;5027700;28;46164;-72
2021/12/15 07:36:53;;;;;;;;;6.00;6.00;;;;;22.10;38.27;103116.47;5027810;28;45343;-71
2021/12/15 07:39:19;;;;;;;;;6.75;6.50;;;;;22.01;38.37;103099.50;5029962;28;45450;-75
2021/12/15 07:41:53;;;;;;;;;6.25;5.00;;;;;22.12;38.46;103121.66;5032113;28;45492;-75
2021/12/15 07:44:21;;;;;;;;;5.00;5.00;;;;;22.07;38.40;103125.50;5030153;27;47033;-70
2021/12/15 07:46:53;;;;;;;;;6.50;6.25;;;;;22.12;38.25;103135.72;5031590;28;45561;-70
2021/12/15 07:49:23;;;;;;;;;7.00;6.50;;;;;22.12;38.84;103127.78;5031418;27;45561;-70
2021/12/15 07:51:59;;;;;;;;;5.25;5.25;;;;;22.13;38.80;103126.81;5045775;27;45431;-70
2021/12/15 07:54:25;;;;;;;;;6.75;5.75;;;;;22.13;38.88;103129.47;5032550;27;47586;-71
2021/12/15 07:56:50;;;;;;;;;7.50;6.00;;;;;22.13;38.68;103126.81;5072284;27;46126;-71
2021/12/15 07:59:16;;;;;;;;;6.25;5.00;;;;;22.14;38.71;103131.16;5084963;27;45496;-72
2021/12/15 08:01:42;;;;;;;;;4.00;4.00;;;;;22.12;39.06;103130.41;5086462;27;45558;-72
2021/12/15 08:04:07;;;;;;;;;5.50;5.50;;;;;22.15;38.68;103127.53;5068739;27;47180;-71
2021/12/15 08:06:33;;;;;;;;;7.00;6.25;;;;;21.92;39.33;103097.59;5030668;28;45422;-78
2021/12/15 08:08:58;;;;;;;;;5.00;5.00;;;;;22.03;39.07;103116.13;5032031;28;45922;-82
2021/12/15 08:11:23;;;;;;;;;6.75;5.75;;;;;22.12;38.89;103130.41;5034511;28;45292;-75
2021/12/15 08:13:49;;;;;;;;;8.75;5.00;;;;;22.16;39.14;103137.19;5031948;28;46063;-75
2021/12/15 08:16:15;;;;;;;;;6.75;4.50;;;;;22.18;38.82;103137.03;5031805;28;45264;-75
2021/12/15 08:18:41;;;;;;;;;7.25;5.50;;;;;22.17;38.95;103130.88;5032148;28;45471;-75
2021/12/15 08:21:08;;;;;;;;;6.25;4.00;;;;;21.99;39.46;103112.03;5031862;28;45293;-75
2021/12/15 08:23:34;;;;;;;;;5.50;5.50;;;;;22.18;38.66;103143.19;5033705;27;47196;-75
2021/12/15 08:26:00;;;;;;;;;7.50;6.25;;;;;22.18;39.07;103137.88;5031719;28;45538;-75
2021/12/15 08:28:26;;;;;;;;;5.25;5.00;;;;;22.10;39.13;103132.38;5030457;28;45503;-75
2021/12/15 08:30:52;;;;;;;;;7.00;7.00;;;;;22.14;38.95;103139.13;5032466;28;45481;-75
2021/12/15 08:33:20;;;;;;;;;6.50;5.50;;;;;22.12;39.22;103138.38;5031693;27;48518;-75
2021/12/15 08:35:50;;;;;;;;;8.50;7.75;;;;;22.19;39.40;103146.69;5032217;28;45476;-74
2021/12/15 08:38:16;;;;;;;;;6.75;5.75;;;;;22.18;39.37;103143.19;5033757;28;45476;-75
2021/12/15 08:40:43;;;;;;;;;5.00;5.00;;;;;22.18;39.30;103150.31;5031730;28;45450;-75
2021/12/15 08:43:09;;;;;;;;;7.75;6.25;;;;;22.17;39.49;103141.50;5030306;28;47055;-75
2021/12/15 08:45:38;;;;;;;;;6.25;5.75;;;;;22.15;38.71;103142.59;5031523;28;45485;-75
2021/12/15 08:48:05;;;;;;;;;6.00;6.00;;;;;22.18;38.75;103155.59;5031837;28;45418;-75
2021/12/15 08:50:34;;;;;;;;;5.25;5.25;;;;;22.18;39.27;103152.94;5033279;27;45630;-75
2021/12/15 08:53:02;;;;;;;;;6.75;4.50;;;;;22.14;39.54;103156.84;5031049;28;47479;-75
2021/12/15 08:55:28;;;;;;;;;6.00;4.50;;;;;22.17;39.27;103162.72;5020400;27;45534;-75
2021/12/15 08:57:56;;;;;;;;;6.50;5.50;;;;;22.16;39.29;103157.53;5031553;28;45562;-75
2021/12/15 09:00:24;;;;;;;;;4.25;4.25;;;;;22.16;38.84;103155.75;5031553;28;45476;-75
2021/12/15 09:02:50;;;;;;;;;6.00;6.00;;;;;22.06;39.43;103136.25;5031628;28;46084;-75
2021/12/15 09:05:21;;;;;;;;;4.75;4.75;;;;;22.16;39.24;103157.53;5030994;28;45278;-75
2021/12/15 09:07:53;;;;;;;;;5.00;5.00;;;;;22.17;38.86;103161.88;5018287;28;45393;-75
2021/12/15 09:10:22;;;;;;;;;7.00;5.75;;;;;22.16;39.23;103165.50;5031325;28;45340;-75
2021/12/15 09:12:48;;;;;;;;;5.00;5.00;;;;;22.15;38.83;103162.00;5013446;28;46301;-76
2021/12/15 09:15:14;;;;;;;;;6.25;5.00;;;;;22.03;39.33;103147.94;5031282;28;45529;-75
2021/12/15 09:17:40;;;;;;;;;6.00;5.00;;;;;22.14;39.15;103162.97;5032832;28;45290;-75
2021/12/15 09:20:10;;;;;;;;;4.00;4.00;;;;;22.04;39.35;103151.44;5031810;28;45676;-75
2021/12/15 09:22:38;;;;;;;;;5.25;5.25;;;;;22.15;38.80;103174.41;5030002;27;45438;-75
2021/12/15 09:25:05;;;;;;;;;7.00;6.00;;;;;22.13;38.86;103169.25;5030912;28;45497;-75
2021/12/15 09:27:30;;;;;;;;;5.25;5.25;;;;;22.15;39.25;103166.44;5031223;28;45558;-75
2021/12/15 09:29:56;;;;;;;;;5.25;5.25;;;;;22.09;38.72;103154.56;5031294;28;49150;-76
2021/12/15 09:32:21;;;;;;;;;6.25;5.50;;;;;22.06;38.93;103149.50;5033158;28;45308;-75
2021/12/15 09:34:47;;;;;;;;;5.75;5.50;;;;;22.07;38.72;103159.97;5030738;28;45540;-76
2021/12/15 09:37:13;;;;;;;;;3.50;3.50;;;;;22.14;38.85;103170.09;5031205;28;45523;-75
2021/12/15 09:39:38;;;;;;;;;5.75;5.75;;;;;22.14;39.07;103172.75;5031004;28;45569;-73
2021/12/15 09:42:04;;;;;;;;;7.25;5.25;;;;;22.13;38.92;103174.53;5031078;28;46804;-73
2021/12/15 09:44:30;;;;;;;;;5.25;5.25;;;;;22.15;39.41;103183.22;5033016;27;45401;-73
2021/12/15 09:47:21;;;;;;;;;6.00;5.00;;;;;22.07;39.02;103159.13;5029317;28;45328;-73
2021/12/15 10:03:43;;;;;;;;;8.50;5.75;;;;;22.18;38.85;103179.47;5014564;28;45508;-73
2021/12/15 10:06:29;;;;;;;;;8.75;7.50;;;;;22.18;38.82;103192.72;5013775;28;45915;-73
2021/12/15 10:19:51;;;;;;;;;7.00;6.50;;;;;22.16;38.88;103192.84;5030418;28;45544;-73
2021/12/15 10:22:50;;;;;;;;;5.00;5.00;;;;;22.15;39.36;103199.13;5030292;28;45393;-73
2021/12/15 10:25:24;;;;;;;;;4.75;4.75;;;;;22.13;38.83;103194.91;5028347;28;46666;-73
2021/12/15 10:28:06;;;;;;;;;9.00;7.50;;;;;22.16;38.99;103202.63;5030234;28;45368;-73
2021/12/15 10:30:35;;;;;;;;;7.75;6.00;;;;;22.14;39.24;103200.09;5030492;28;45327;-72
2021/12/15 10:33:10;;;;;;;;;5.00;5.00;;;;;22.15;39.40;103190.31;5029939;28;45330;-73
2021/12/15 10:35:38;;;;;;;;;3.25;3.25;;;;;22.15;39.22;103192.97;5028253;28;46536;-73
2021/12/15 10:38:41;;;;;;;;;5.00;5.00;;;;;22.15;39.43;103185.00;5030840;28;45428;-73
2021/12/15 10:41:16;;;;;;;;;4.00;4.00;;;;;22.14;39.15;103181.53;5029613;28;45375;-73
2021/12/15 10:43:41;;;;;;;;;6.00;5.25;;;;;22.14;39.72;103192.16;5030232;28;45451;-73
2021/12/15 10:46:12;;;;;;;;;7.00;7.00;;;;;22.00;39.24;103173.84;5029363;28;45591;-72
2021/12/15 10:48:43;;;;;;;;;5.75;5.25;;;;;22.14;38.94;103202.75;5029645;28;45434;-73
2021/12/15 10:51:40;;;;;;;;;6.50;5.50;;;;;22.15;39.09;103192.97;5013647;28;45419;-77
2021/12/15 10:54:08;;;;;;;;;4.50;4.50;;;;;22.15;39.28;103206.22;5014575;28;45485;-75
2021/12/15 10:56:39;;;;;;;;;7.00;7.00;;;;;22.15;39.12;103192.97;5027933;28;46280;-76
2021/12/15 10:59:11;;;;;;;;;7.75;6.00;;;;;22.15;39.15;103190.31;5028061;28;45467;-76
2021/12/15 11:01:50;;;;;;;;;6.00;6.00;;;;;22.13;39.09;103193.09;5029688;27;45307;-76
2021/12/15 11:04:32;;;;;;;;;6.00;5.00;;;;;22.05;39.13;103176.97;5028330;27;45293;-76
2021/12/15 11:07:12;;;;;;;;;4.25;4.25;;;;;22.15;39.14;103195.63;5029633;27;47072;-75
2021/12/15 11:09:46;;;;;;;;;6.00;5.75;;;;;22.14;39.56;103191.28;5029725;28;45431;-75
2021/12/15 11:12:16;;;;;;;;;7.25;6.25;;;;;22.13;39.32;103185.16;4996272;28;49188;-76
2021/12/15 11:14:46;;;;;;;;;5.50;5.50;;;;;21.95;39.17;103158.31;5034400;28;45411;-76
2021/12/15 11:17:26;;;;;;;;;5.00;5.00;;;;;22.03;39.00;103163.84;5034486;28;46177;-76
2021/12/15 11:19:55;;;;;;;;;5.00;5.00;;;;;22.15;39.12;103172.59;5013990;27;46566;-75
2021/12/15 11:22:41;;;;;;;;;6.00;6.00;;;;;22.14;39.06;103170.94;5032685;27;45289;-76
2021/12/15 11:25:14;;;;;;;;;5.75;5.00;;;;;22.14;39.44;103170.94;5032611;28;45518;-76
2021/12/15 11:27:39;;;;;;;;;7.25;5.00;;;;;22.10;39.15;103164.19;5032722;28;46677;-76
2021/12/15 11:30:10;;;;;;;;;6.00;6.00;;;;;22.11;39.26;103165.03;5016545;27;45539;-76
2021/12/15 11:32:40;;;;;;;;;4.75;4.75;;;;;22.15;39.07;103169.94;5031131;28;45363;-76
2021/12/15 11:35:23;;;;;;;;;7.00;6.00;;;;;22.13;39.65;103173.69;5030712;28;45433;-75
2021/12/15 11:37:54;;;;;;;;;7.00;6.25;;;;;22.13;39.53;103169.25;5032445;27;45370;-76
2021/12/15 11:40:34;;;;;;;;;5.25;4.00;;;;;21.97;39.05;103143.13;5032233;28;45519;-76
2021/12/15 11:43:00;;;;;;;;;5.75;5.75;;;;;22.15;39.09;103172.59;5031462;28;45283;-75
2021/12/15 11:45:27;;;;;;;;;7.00;5.00;;;;;22.15;39.51;103161.16;5032155;27;45864;-75
2021/12/15 11:48:29;;;;;;;;;7.00;6.00;;;;;22.11;39.16;103157.91;5032442;27;46167;-75
2021/12/15 11:50:58;;;;;;;;;5.50;4.75;;;;;22.14;39.06;103154.19;5026215;27;47302;-75
2021/12/15 11:53:41;;;;;;;;;6.25;5.25;;;;;21.99;39.10;103119.97;5022336;28;45552;-75
2021/12/15 11:56:21;;;;;;;;;7.00;5.50;;;;;22.13;39.22;103148.03;5028731;28;45392;-75
2021/12/15 11:58:50;;;;;;;;;7.75;5.75;;;;;22.13;39.63;103145.38;5025773;28;46173;-75
2021/12/15 12:01:40;;;;;;;;;4.75;4.75;;;;;22.15;39.41;103151.38;5029746;27;45832;-75
2021/12/15 12:04:32;;;;;;;;;4.00;4.00;;;;;22.15;39.75;103155.84;5023628;27;45451;-75
2021/12/15 12:07:13;;;;;;;;;5.00;5.00;;;;;22.15;39.31;103147.88;5025925;28;48641;-75
2021/12/15 12:09:40;;;;;;;;;5.00;5.00;;;;;22.15;39.38;103151.38;5022509;27;47075;-74
2021/12/15 12:12:07;;;;;;;;;4.25;4.25;;;;;22.05;39.96;103123.94;5021016;27;45456;-75
2021/12/15 12:17:13;;;;;;;;;4.00;4.00;;;;;22.16;39.78;103134.53;5025158;27;45600;-75
2021/12/15 12:19:49;;;;;;;;;4.00;4.00;;;;;22.04;39.51;103120.44;5022695;28;46356;-76
2021/12/15 12:22:16;;;;;;;;;4.75;4.75;;;;;22.07;39.38;103116.69;5026501;27;45466;-74
2021/12/15 12:24:45;;;;;;;;;4.00;4.00;;;;;22.17;39.91;103135.38;5024531;27;45684;-74
2021/12/15 12:27:11;;;;;;;;;6.50;5.50;;;;;22.16;39.66;103134.53;5024122;28;45410;-74
2021/12/15 12:29:37;;;;;;;;;3.00;3.00;;;;;22.12;39.76;103121.66;5023243;28;46301;-74
2021/12/15 12:32:04;;;;;;;;;5.00;5.00;;;;;22.14;39.68;103133.81;5021207;27;45439;-74
2021/12/15 12:34:30;;;;;;;;;6.50;5.00;;;;;22.03;39.62;103108.19;5017205;28;45586;-74
2021/12/15 12:36:56;;;;;;;;;5.50;4.00;;;;;22.02;40.07;103109.13;5016969;27;45541;-73
2021/12/15 12:39:30;;;;;;;;;6.00;5.00;;;;;22.17;39.98;103127.41;5022330;27;46232;-72
2021/12/15 12:41:55;;;;;;;;;4.25;4.25;;;;;22.14;39.57;103120.56;5015687;28;45430;-72